Aeroporto :
LOGIN :

Iscrizione | Disclaimer

   EN    FR    IT 

 










Sommario :    VFR   VFR Marginale   IFR   IFR Intensivo   IFR Molto Intensivo
Visibilità : 
Base nubi : 
>= 8 km
>= 3000ft
5 / 8 km
1000 / 3000 ft
1500m / 5 km
500 / 1000 ft
800 / 1500m
200 / 500 ft
< 800m
< 200 ft
Simboli :   Temporali  Nebbia  Neve Forte  Precipitazioni Forti  Vento > 20 kt
SIGMETs :   Varie  Temporali  Ghiacco  Turbolenza  Onda orograficha  Ceneri Vulcaniche






- Altitudine del aeroporto : 27 ft
- Codice IATA : PMI


LEPA - Palma de Mallorca

ULTIMO METAR :
  • 131700Z 23007KT CAVOK 29/20 Q1016 NOSIG

METARs OBSOLETI :
  • 131630Z 24007KT 210V280 CAVOK 29/20 Q1016 NOSIG
  • 131600Z 23009KT 200V260 CAVOK 29/20 Q1016 NOSIG
  • 131530Z 23007KT 190V280 CAVOK 29/20 Q1016 NOSIG
  • 131500Z 24008KT 200V270 CAVOK 29/20 Q1016 NOSIG
  • 131430Z 23011KT 200V260 CAVOK 30/21 Q1016 NOSIG

TAF AMD TAF LEPA
Valido dal 13 a 13 ore il 14 a 12 ore UTC


131304Z 1313/1412 06010KT 9999 FEW030 TX30/1313Z TN20/1406Z
TEMPO 1313/1318 20010KT
BECMG 1322/1324 VRB03KT
TEMPO 1407/1411 13008KT
BECMG 1410/1412 22013G23KT



MetMap, La meteo Aeronautica in un colpo d'occhio ! - Copyright ORBIFLY Dicembre 2007 - Disclaimer

ORBIFLY MET'MAP TEAM :

Programmazione e sviluppo : Alexandra Zaïnal
Concezione : Baudouin d'Aumeries
Aiuto per la programmazione : Marc-Olivier Méhu
Supporto tecnico e logistico : Manuel Goepfert
Aiuto per la traduzione : Arnaldo La Scala

Contatto : metmap@orbifly.com




FONTI E CREDITI :

   NOAA